Montz, Louisiana
Current Conditions -  °F | °C
As of 7:15 AM on Sunday 23 Nov 2014 (Local Time) from K1L0 Reporting Station
Light Rain Light Rain  
Wind Chill: 67°   Ceiling: 10000
Heat Index: 67°   Visibility: 10mi
Dew Point: 64°   Wind: 9mph
Humidity: 89%   Direction: 180°S
Pressure: 29.71"   Gusts: NA
Location:  30.1499°N, 90.4621°W
Report Text: K1L0 231315Z AUTO 18008KT 10SM -RA SCT010 SCT035 OVC100 19/18 A2971 RMK AO2 LTG DSNT E P0001 T01940175
Loading
Personal Weather Stations






























Interactive Weather Map New forecast layout! Learn more

10-Day Weather Forecast

Advertisements
Track Severe Weather on mobile